createdAt,value
2016-08-24T00:00:54.459Z,0
2016-08-24T00:01:54.445Z,0
2016-08-24T00:02:54.410Z,0
2016-08-24T00:03:54.430Z,0
2016-08-24T00:04:54.424Z,0
2016-08-24T00:05:54.439Z,0
2016-08-24T00:06:54.465Z,0
2016-08-24T00:07:54.452Z,0
2016-08-24T00:08:54.390Z,0
2016-08-24T00:09:54.426Z,0
2016-08-24T00:10:54.438Z,0
2016-08-24T00:11:54.409Z,0
2016-08-24T00:12:55.062Z,0
2016-08-24T00:13:54.398Z,0
2016-08-24T00:14:54.442Z,0
2016-08-24T00:15:54.465Z,0
2016-08-24T00:16:54.434Z,0
2016-08-24T00:17:54.479Z,0
2016-08-24T00:18:54.434Z,0
2016-08-24T00:19:54.437Z,0
2016-08-24T00:20:54.450Z,0
2016-08-24T00:21:54.437Z,0
2016-08-24T00:22:54.476Z,0
2016-08-24T00:23:54.450Z,0
2016-08-24T00:24:54.437Z,0
2016-08-24T00:25:54.436Z,0
2016-08-24T00:26:54.454Z,0
2016-08-24T00:27:54.481Z,0
2016-08-24T00:28:54.422Z,0
2016-08-24T00:29:54.448Z,0
2016-08-24T00:30:54.437Z,0
2016-08-24T00:31:54.443Z,0
2016-08-24T00:32:54.430Z,0
2016-08-24T00:33:54.439Z,0
2016-08-24T00:34:54.451Z,0
2016-08-24T00:35:54.438Z,0
2016-08-24T00:36:54.442Z,0
2016-08-24T00:37:54.437Z,0
2016-08-24T00:38:54.439Z,0
2016-08-24T00:39:54.420Z,0
2016-08-24T00:40:54.471Z,0
2016-08-24T00:41:54.444Z,0
2016-08-24T00:42:54.440Z,0
2016-08-24T00:43:54.435Z,0
2016-08-24T00:44:54.450Z,0
2016-08-24T00:45:54.484Z,0
2016-08-24T00:46:54.450Z,0
2016-08-24T00:47:54.454Z,0
2016-08-24T00:48:54.468Z,0
2016-08-24T00:49:54.454Z,0
2016-08-24T00:50:54.457Z,0
2016-08-24T00:51:54.756Z,0
2016-08-24T00:52:54.460Z,0
2016-08-24T00:53:54.453Z,0
2016-08-24T00:54:54.468Z,0
2016-08-24T00:55:54.460Z,0
2016-08-24T00:56:54.501Z,0
2016-08-24T00:57:54.466Z,0
2016-08-24T00:58:54.496Z,0
2016-08-24T00:59:54.438Z,0
2016-08-24T01:00:54.469Z,0
2016-08-24T01:01:54.475Z,0
2016-08-24T01:02:54.509Z,0
2016-08-24T01:03:54.817Z,0
2016-08-24T01:04:54.457Z,0
2016-08-24T01:05:54.481Z,0
2016-08-24T01:06:54.531Z,0
2016-08-24T01:07:54.480Z,0
2016-08-24T01:08:54.477Z,0
2016-08-24T01:09:54.511Z,0
2016-08-24T01:10:54.472Z,0
2016-08-24T01:11:54.477Z,0
2016-08-24T01:12:54.590Z,0
2016-08-24T01:13:54.474Z,0
2016-08-24T01:14:54.514Z,0
2016-08-24T01:15:54.518Z,0
2016-08-24T01:16:54.473Z,0
2016-08-24T01:17:54.500Z,0
2016-08-24T01:18:55.464Z,0
2016-08-24T01:19:54.480Z,0
2016-08-24T01:20:54.500Z,0
2016-08-24T01:21:54.535Z,0
2016-08-24T01:22:54.514Z,0
2016-08-24T01:23:54.534Z,0
2016-08-24T01:24:54.711Z,0
2016-08-24T01:25:54.530Z,0
2016-08-24T01:26:54.505Z,0
2016-08-24T01:27:54.738Z,0
2016-08-24T01:28:54.491Z,0
2016-08-24T01:29:54.502Z,0
2016-08-24T01:30:54.534Z,0
2016-08-24T01:31:54.536Z,0
2016-08-24T01:32:54.499Z,0
2016-08-24T01:33:55.867Z,0
2016-08-24T01:34:54.500Z,0
2016-08-24T01:35:54.463Z,0
2016-08-24T01:36:54.549Z,0
2016-08-24T01:37:54.502Z,0
2016-08-24T01:38:54.486Z,0
2016-08-24T01:39:54.745Z,0
2016-08-24T01:40:54.522Z,0
2016-08-24T01:41:54.507Z,0
2016-08-24T01:42:54.733Z,0
2016-08-24T01:43:54.524Z,0
2016-08-24T01:44:54.535Z,0
2016-08-24T01:45:55.454Z,0
2016-08-24T01:46:54.514Z,0
2016-08-24T01:47:54.502Z,0
2016-08-24T01:48:54.561Z,0
2016-08-24T01:49:54.505Z,0
2016-08-24T01:50:54.545Z,0
2016-08-24T01:51:55.399Z,0
2016-08-24T01:52:54.522Z,0
2016-08-24T01:53:54.491Z,0
2016-08-24T01:54:54.575Z,0
2016-08-24T01:55:54.532Z,0
2016-08-24T01:56:54.534Z,0
2016-08-24T01:57:54.505Z,0
2016-08-24T01:58:54.612Z,0
2016-08-24T01:59:54.532Z,0
2016-08-24T02:00:54.551Z,0
2016-08-24T02:01:54.531Z,0
2016-08-24T02:02:54.538Z,0
2016-08-24T02:03:56.016Z,0
2016-08-24T02:04:54.570Z,0
2016-08-24T02:05:54.540Z,0
2016-08-24T02:06:54.535Z,0
2016-08-24T02:07:54.547Z,0
2016-08-24T02:08:54.546Z,0
2016-08-24T02:09:54.837Z,0
2016-08-24T02:10:54.567Z,0
2016-08-24T02:11:54.544Z,0
2016-08-24T02:12:54.517Z,0
2016-08-24T02:13:54.550Z,0
2016-08-24T02:14:54.533Z,0
2016-08-24T02:15:54.539Z,0
2016-08-24T02:16:54.535Z,0
2016-08-24T02:17:54.509Z,0
2016-08-24T02:18:54.530Z,0
2016-08-24T02:19:54.534Z,0
2016-08-24T02:20:54.534Z,0
2016-08-24T02:21:54.565Z,0
2016-08-24T02:22:54.546Z,0
2016-08-24T02:23:54.553Z,0
2016-08-24T02:24:54.714Z,0
2016-08-24T02:25:54.533Z,0
2016-08-24T02:26:54.544Z,0
2016-08-24T02:27:54.564Z,0
2016-08-24T02:28:54.545Z,0
2016-08-24T02:29:54.535Z,0
2016-08-24T02:30:54.545Z,0
2016-08-24T02:31:54.532Z,0
2016-08-24T02:32:54.618Z,0
2016-08-24T02:33:54.550Z,0
2016-08-24T02:34:54.566Z,0
2016-08-24T02:35:54.564Z,0
2016-08-24T02:36:54.580Z,0
2016-08-24T02:37:54.547Z,0
2016-08-24T02:38:54.628Z,0
2016-08-24T02:39:55.068Z,0
2016-08-24T02:40:54.594Z,0
2016-08-24T02:41:54.702Z,0
2016-08-24T02:42:54.696Z,0
2016-08-24T02:43:54.550Z,0
2016-08-24T02:44:54.652Z,0
2016-08-24T02:45:54.579Z,0
2016-08-24T02:46:54.592Z,0
2016-08-24T02:47:54.619Z,0
2016-08-24T02:48:55.297Z,0
2016-08-24T02:49:54.616Z,0
2016-08-24T02:50:54.595Z,0
2016-08-24T02:51:54.618Z,0
2016-08-24T02:52:54.579Z,0
2016-08-24T02:53:54.582Z,0
2016-08-24T02:54:54.597Z,0
2016-08-24T02:55:54.616Z,0
2016-08-24T02:56:54.576Z,0
2016-08-24T02:57:54.569Z,0
2016-08-24T02:58:54.582Z,0
2016-08-24T02:59:54.596Z,0
2016-08-24T03:00:55.712Z,0
2016-08-24T03:01:54.581Z,0
2016-08-24T03:02:54.576Z,0
2016-08-24T03:03:55.016Z,0
2016-08-24T03:04:54.573Z,0
2016-08-24T03:05:55.135Z,0
2016-08-24T03:06:54.762Z,0
2016-08-24T03:07:54.615Z,0
2016-08-24T03:08:54.595Z,0
2016-08-24T03:09:54.735Z,0
2016-08-24T03:10:54.609Z,0
2016-08-24T03:11:54.574Z,0
2016-08-24T03:12:54.657Z,0
2016-08-24T03:13:54.589Z,0
2016-08-24T03:14:54.595Z,0
2016-08-24T03:15:54.777Z,0
2016-08-24T03:16:54.547Z,0
2016-08-24T03:17:54.596Z,0
2016-08-24T03:18:54.565Z,0
2016-08-24T03:19:54.642Z,0
2016-08-24T03:20:54.588Z,0
2016-08-24T03:21:54.597Z,0
2016-08-24T03:22:54.633Z,0
2016-08-24T03:23:54.572Z,0
2016-08-24T03:24:54.586Z,0
2016-08-24T03:25:54.597Z,0
2016-08-24T03:26:54.599Z,0
2016-08-24T03:27:54.594Z,0
2016-08-24T03:28:54.752Z,0
2016-08-24T03:29:54.598Z,0
2016-08-24T03:30:54.597Z,0
2016-08-24T03:31:54.609Z,0
2016-08-24T03:32:54.613Z,0
2016-08-24T03:33:54.619Z,0
2016-08-24T03:34:54.602Z,0
2016-08-24T03:35:54.615Z,0
2016-08-24T03:36:54.595Z,0
2016-08-24T03:37:54.586Z,0
2016-08-24T03:38:54.669Z,0
2016-08-24T03:39:54.594Z,0
2016-08-24T03:40:54.673Z,0
2016-08-24T03:41:54.634Z,0
2016-08-24T03:42:54.598Z,0
2016-08-24T03:43:54.648Z,0
2016-08-24T03:44:54.598Z,0
2016-08-24T03:45:54.617Z,0
2016-08-24T03:46:54.611Z,0
2016-08-24T03:47:54.598Z,4
2016-08-24T03:48:54.604Z,4
2016-08-24T03:49:54.614Z,4
2016-08-24T03:50:54.634Z,4
2016-08-24T03:51:54.615Z,0
2016-08-24T03:52:54.602Z,4
2016-08-24T03:53:54.594Z,4
2016-08-24T03:54:54.615Z,4
2016-08-24T03:55:54.597Z,4
2016-08-24T03:56:54.644Z,8
2016-08-24T03:57:54.686Z,8
2016-08-24T03:58:54.645Z,8
2016-08-24T03:59:54.669Z,12
2016-08-24T04:00:54.626Z,12
2016-08-24T04:01:54.658Z,12
2016-08-24T04:02:54.614Z,12
2016-08-24T04:03:54.660Z,16
2016-08-24T04:04:54.640Z,20
2016-08-24T04:05:54.631Z,20
2016-08-24T04:06:54.607Z,24
2016-08-24T04:07:54.629Z,32
2016-08-24T04:08:54.684Z,36
2016-08-24T04:09:54.649Z,44
2016-08-24T04:10:54.648Z,52
2016-08-24T04:11:54.663Z,56
2016-08-24T04:12:54.669Z,68
2016-08-24T04:13:54.633Z,76
2016-08-24T04:14:54.710Z,84
2016-08-24T04:15:54.668Z,96
2016-08-24T04:16:54.657Z,104
2016-08-24T04:17:54.682Z,120
2016-08-24T04:18:54.634Z,136
2016-08-24T04:19:54.662Z,148
2016-08-24T04:20:54.704Z,168
2016-08-24T04:21:54.765Z,180
2016-08-24T04:22:54.678Z,204
2016-08-24T04:23:54.662Z,220
2016-08-24T04:24:54.626Z,240
2016-08-24T04:25:54.663Z,264
2016-08-24T04:26:54.683Z,292
2016-08-24T04:27:54.631Z,316
2016-08-24T04:28:54.756Z,340
2016-08-24T04:29:54.646Z,372
2016-08-24T04:30:54.726Z,396
2016-08-24T04:31:54.677Z,428
2016-08-24T04:32:54.665Z,460
2016-08-24T04:33:54.659Z,492
2016-08-24T04:34:54.659Z,528
2016-08-24T04:35:54.686Z,560
2016-08-24T04:36:54.725Z,596
2016-08-24T04:37:54.714Z,632
2016-08-24T04:38:54.676Z,668
2016-08-24T04:39:54.670Z,708
2016-08-24T04:40:54.716Z,744
2016-08-24T04:41:54.676Z,780
2016-08-24T04:43:44.885Z,844
2016-08-24T04:45:09.229Z,900
2016-08-24T04:46:32.641Z,952
2016-08-24T04:47:57.772Z,1008
2016-08-24T04:49:19.177Z,1060
2016-08-24T04:50:42.551Z,1112
2016-08-24T04:52:04.545Z,1164
2016-08-24T04:53:27.128Z,1212
2016-08-24T04:54:49.802Z,1268
2016-08-24T04:56:11.668Z,1320
2016-08-24T04:57:31.406Z,1364
2016-08-24T04:57:57.384Z,1384
2016-08-24T04:58:57.404Z,1420
2016-08-24T04:59:57.352Z,1460
2016-08-24T05:00:57.416Z,1492
2016-08-24T05:01:57.847Z,1524
2016-08-24T05:02:57.361Z,1560
2016-08-24T05:03:57.353Z,1592
2016-08-24T05:04:57.397Z,1620
2016-08-24T05:05:57.386Z,1652
2016-08-24T05:06:57.380Z,1688
2016-08-24T05:07:57.373Z,1716
2016-08-24T05:08:57.409Z,1748
2016-08-24T05:09:57.423Z,1780
2016-08-24T05:10:57.394Z,1812
2016-08-24T05:11:57.441Z,1840
2016-08-24T05:12:57.384Z,1868
2016-08-24T05:13:57.382Z,1900
2016-08-24T05:14:57.376Z,1928
2016-08-24T05:15:57.471Z,1960
2016-08-24T05:16:57.393Z,1992
2016-08-24T05:17:57.370Z,2012
2016-08-24T05:18:57.394Z,2040
2016-08-24T05:19:57.369Z,2064
2016-08-24T05:20:57.369Z,2092
2016-08-24T05:21:57.425Z,2112
2016-08-24T05:22:57.379Z,2144
2016-08-24T05:23:58.026Z,2160
2016-08-24T05:24:57.392Z,2184
2016-08-24T05:25:57.381Z,2208
2016-08-24T05:26:57.389Z,2232
2016-08-24T05:27:57.379Z,2256
2016-08-24T05:28:57.457Z,2276
2016-08-24T05:29:57.394Z,2300
2016-08-24T05:30:57.422Z,2328
2016-08-24T05:31:57.395Z,2352
2016-08-24T05:32:57.397Z,2372
2016-08-24T05:33:57.376Z,2396
2016-08-24T05:35:47.109Z,2432
2016-08-24T05:37:10.774Z,2460
2016-08-24T05:38:34.149Z,2488
2016-08-24T05:39:58.153Z,2520
2016-08-24T05:41:21.291Z,2552
2016-08-24T05:42:44.255Z,2580
2016-08-24T05:44:06.687Z,2612
2016-08-24T05:45:29.143Z,2636
2016-08-24T05:46:50.609Z,2664
2016-08-24T05:48:14.632Z,2688
2016-08-24T05:49:34.021Z,2712
2016-08-24T05:49:48.444Z,2720
2016-08-24T05:50:48.465Z,2740
2016-08-24T05:51:48.459Z,2760
2016-08-24T05:52:48.500Z,2768
2016-08-24T05:53:48.486Z,2784
2016-08-24T05:54:48.499Z,2804
2016-08-24T05:55:48.445Z,2812
2016-08-24T05:56:48.468Z,2824
2016-08-24T05:57:48.458Z,2836
2016-08-24T05:58:48.468Z,2848
2016-08-24T05:59:48.517Z,2872
2016-08-24T06:00:48.461Z,2880
2016-08-24T06:01:48.605Z,2892
2016-08-24T06:02:48.710Z,2912
2016-08-24T06:03:48.546Z,2928
2016-08-24T06:04:48.471Z,2936
2016-08-24T06:05:48.464Z,2956
2016-08-24T06:06:49.046Z,2968
2016-08-24T06:07:48.455Z,2984
2016-08-24T06:08:48.442Z,2996
2016-08-24T06:09:48.466Z,3004
2016-08-24T06:10:48.470Z,3016
2016-08-24T06:11:48.480Z,3024
2016-08-24T06:12:48.673Z,3036
2016-08-24T06:13:48.491Z,3052
2016-08-24T06:14:48.481Z,3056
2016-08-24T06:15:48.488Z,3076
2016-08-24T06:16:48.573Z,3072
2016-08-24T06:17:48.552Z,3084
2016-08-24T06:18:48.489Z,3084
2016-08-24T06:19:48.459Z,3092
2016-08-24T06:20:48.968Z,3092
2016-08-24T06:21:48.493Z,3112
2016-08-24T06:22:48.488Z,3120
2016-08-24T06:23:48.494Z,3124
2016-08-24T06:24:48.467Z,3128
2016-08-24T06:25:48.462Z,3128
2016-08-24T06:26:48.516Z,3132
2016-08-24T06:27:48.487Z,3136
2016-08-24T06:28:48.546Z,3148
2016-08-24T06:29:48.492Z,3160
2016-08-24T06:30:48.490Z,3172
2016-08-24T06:31:48.477Z,3172
2016-08-24T06:32:48.525Z,3180
2016-08-24T06:33:48.552Z,3184
2016-08-24T06:34:48.585Z,3192
2016-08-24T06:35:48.521Z,3200
2016-08-24T06:36:48.527Z,3212
2016-08-24T06:37:48.475Z,3220
2016-08-24T06:38:48.518Z,3224
2016-08-24T06:39:48.489Z,3240
2016-08-24T06:40:48.515Z,3252
2016-08-24T06:41:48.567Z,3252
2016-08-24T06:42:48.503Z,3256
2016-08-24T06:43:48.501Z,3256
2016-08-24T06:44:48.521Z,3264
2016-08-24T06:45:48.501Z,3268
2016-08-24T06:46:48.521Z,3276
2016-08-24T06:47:48.600Z,3292
2016-08-24T06:48:48.717Z,3300
2016-08-24T06:49:48.539Z,3300
2016-08-24T06:50:48.489Z,3300
2016-08-24T06:51:48.523Z,3304
2016-08-24T06:52:48.562Z,3308
2016-08-24T06:53:48.556Z,3312
2016-08-24T06:54:48.579Z,3320
2016-08-24T06:55:48.580Z,3320
2016-08-24T06:56:48.610Z,3324
2016-08-24T06:57:48.622Z,3332
2016-08-24T06:58:48.569Z,3336
2016-08-24T06:59:48.579Z,3340
2016-08-24T07:00:48.588Z,3344
2016-08-24T07:01:49.108Z,3348
2016-08-24T07:02:48.558Z,3352
2016-08-24T07:03:48.658Z,3368
2016-08-24T07:04:48.689Z,3368
2016-08-24T07:05:48.564Z,3368
2016-08-24T07:06:48.628Z,3372
2016-08-24T07:07:48.766Z,3376
2016-08-24T07:08:48.516Z,3380
2016-08-24T07:09:48.502Z,3384
2016-08-24T07:10:48.512Z,3384
2016-08-24T07:11:48.561Z,3396
2016-08-24T07:12:48.550Z,3408
2016-08-24T07:13:48.550Z,3408
2016-08-24T07:14:48.521Z,3420
2016-08-24T07:15:48.557Z,3428
2016-08-24T07:16:48.522Z,3444
2016-08-24T07:17:48.555Z,3456
2016-08-24T07:18:48.544Z,3468
2016-08-24T07:19:48.536Z,3472
2016-08-24T07:20:48.549Z,3492
2016-08-24T07:21:48.538Z,3496
2016-08-24T07:22:48.611Z,3508
2016-08-24T07:23:48.549Z,3520
2016-08-24T07:24:48.543Z,3532
2016-08-24T07:25:48.562Z,3548
2016-08-24T07:26:48.564Z,3564
2016-08-24T07:27:48.537Z,3568
2016-08-24T07:28:48.550Z,3584
2016-08-24T07:29:48.681Z,3596
2016-08-24T07:30:48.573Z,3608
2016-08-24T07:31:48.609Z,3624
2016-08-24T07:32:48.681Z,3640
2016-08-24T07:33:48.707Z,3656
2016-08-24T07:34:48.662Z,3664
2016-08-24T07:35:48.570Z,3680
2016-08-24T07:36:48.554Z,3692
2016-08-24T07:37:48.565Z,3704
2016-08-24T07:38:48.563Z,3712
2016-08-24T07:39:48.616Z,3724
2016-08-24T07:40:48.616Z,3748
2016-08-24T07:41:48.644Z,3756
2016-08-24T07:42:48.584Z,3748
2016-08-24T07:43:48.649Z,3764
2016-08-24T07:44:48.624Z,3776
2016-08-24T07:45:48.663Z,3772
2016-08-24T07:46:49.239Z,3772
2016-08-24T07:47:48.588Z,3776
2016-08-24T07:48:48.575Z,3776
2016-08-24T07:49:48.558Z,3788
2016-08-24T07:50:48.581Z,3796
2016-08-24T07:51:48.604Z,3796
2016-08-24T07:52:48.674Z,3796
2016-08-24T07:53:48.626Z,3792
2016-08-24T07:54:48.570Z,3792
2016-08-24T07:55:48.583Z,3796
2016-08-24T07:56:48.624Z,3800
2016-08-24T07:57:48.568Z,3808
2016-08-24T07:58:48.573Z,3796
2016-08-24T07:59:48.585Z,3812
2016-08-24T08:00:48.588Z,3812
2016-08-24T08:01:48.552Z,3808
2016-08-24T08:02:48.567Z,3796
2016-08-24T08:03:49.203Z,3788
2016-08-24T08:04:48.642Z,3784
2016-08-24T08:05:48.582Z,3776
2016-08-24T08:06:48.637Z,3768
2016-08-24T08:07:48.586Z,3772
2016-08-24T08:08:48.626Z,3760
2016-08-24T08:09:48.576Z,3756
2016-08-24T08:10:48.643Z,3748
2016-08-24T08:11:48.691Z,3736
2016-08-24T08:12:48.598Z,3724
2016-08-24T08:13:48.614Z,3728
2016-08-24T08:14:48.578Z,3720
2016-08-24T08:15:48.670Z,3708
2016-08-24T08:16:48.591Z,3704
2016-08-24T08:17:48.612Z,3696
2016-08-24T08:18:48.612Z,3684
2016-08-24T08:19:48.633Z,3684
2016-08-24T08:20:48.627Z,3684
2016-08-24T08:21:48.657Z,3692
2016-08-24T08:22:48.799Z,3692
2016-08-24T08:23:48.647Z,3700
2016-08-24T08:24:49.018Z,3680
2016-08-24T08:25:48.628Z,3668
2016-08-24T08:26:48.682Z,3668
2016-08-24T08:27:48.739Z,3668
2016-08-24T08:28:48.620Z,3676
2016-08-24T08:29:48.616Z,3676
2016-08-24T08:30:48.634Z,3680
2016-08-24T08:31:48.600Z,3676
2016-08-24T08:32:48.690Z,3668
2016-08-24T08:33:48.715Z,3664
2016-08-24T08:34:48.751Z,3664
2016-08-24T08:35:48.726Z,3660
2016-08-24T08:36:48.609Z,3660
2016-08-24T08:37:48.659Z,3648
2016-08-24T08:38:48.659Z,3648
2016-08-24T08:39:48.624Z,3632
2016-08-24T08:40:48.634Z,3624
2016-08-24T08:41:48.661Z,3616
2016-08-24T08:42:48.682Z,3592
2016-08-24T08:43:48.680Z,3552
2016-08-24T08:44:48.706Z,3512
2016-08-24T08:45:48.669Z,3488
2016-08-24T08:46:48.647Z,3500
2016-08-24T08:47:48.663Z,3500
2016-08-24T08:48:48.629Z,3512
2016-08-24T08:49:48.644Z,3524
2016-08-24T08:50:48.644Z,3528
2016-08-24T08:51:48.677Z,3528
2016-08-24T08:52:48.718Z,3540
2016-08-24T08:53:48.651Z,3544
2016-08-24T08:54:48.649Z,3540
2016-08-24T08:55:48.644Z,3524
2016-08-24T08:56:48.635Z,3524
2016-08-24T08:57:48.648Z,3536
2016-08-24T08:58:48.663Z,3524
2016-08-24T08:59:48.635Z,3520
2016-08-24T09:00:48.646Z,3504
2016-08-24T09:01:48.675Z,3500
2016-08-24T09:02:48.693Z,3488
2016-08-24T09:03:48.647Z,3476
2016-08-24T09:04:48.681Z,3480
2016-08-24T09:05:48.724Z,3484
2016-08-24T09:06:48.633Z,3480
2016-08-24T09:07:48.681Z,3460
2016-08-24T09:08:48.646Z,3436
2016-08-24T09:09:48.667Z,3424
2016-08-24T09:10:48.645Z,3436
2016-08-24T09:11:48.664Z,3452
2016-08-24T09:12:48.645Z,3456
2016-08-24T09:13:48.682Z,3452
2016-08-24T09:14:48.662Z,3448
2016-08-24T09:15:48.696Z,3444
2016-08-24T09:16:48.669Z,3444
2016-08-24T09:17:48.648Z,3460
2016-08-24T09:18:48.717Z,3456
2016-08-24T09:19:48.661Z,3464
2016-08-24T09:20:48.684Z,3456
2016-08-24T09:21:48.660Z,3452
2016-08-24T09:22:48.756Z,3456
2016-08-24T09:23:48.693Z,3464
2016-08-24T09:24:48.681Z,3468
2016-08-24T09:25:48.676Z,3464
2016-08-24T09:26:48.653Z,3464
2016-08-24T09:27:48.705Z,3464
2016-08-24T09:28:48.686Z,3456
2016-08-24T09:29:48.685Z,3452
2016-08-24T09:30:48.691Z,3452
2016-08-24T09:31:48.697Z,3480
2016-08-24T09:32:48.698Z,3480
2016-08-24T09:33:48.700Z,3468
2016-08-24T09:34:48.722Z,3480
2016-08-24T09:35:48.710Z,3480
2016-08-24T09:36:48.708Z,3484
2016-08-24T09:37:48.696Z,3488
2016-08-24T09:38:48.717Z,3496
2016-08-24T09:39:48.725Z,3496
2016-08-24T09:40:48.706Z,3472
2016-08-24T09:41:48.737Z,3476
2016-08-24T09:42:48.794Z,3480
2016-08-24T09:43:48.802Z,3500
2016-08-24T09:44:48.762Z,3496
2016-08-24T09:45:48.684Z,3504
2016-08-24T09:46:48.737Z,3488
2016-08-24T09:47:48.726Z,3468
2016-08-24T09:48:48.762Z,3484
2016-08-24T09:49:48.695Z,3500
2016-08-24T09:50:48.732Z,3476
2016-08-24T09:51:48.724Z,3464
2016-08-24T09:52:48.741Z,3468
2016-08-24T09:53:48.715Z,3468
2016-08-24T09:54:48.672Z,3460
2016-08-24T09:55:48.706Z,3464
2016-08-24T09:56:48.700Z,3464
2016-08-24T09:57:48.738Z,3468
2016-08-24T09:58:48.680Z,3460
2016-08-24T09:59:48.675Z,3464
2016-08-24T10:00:48.708Z,3468
2016-08-24T10:01:48.700Z,3460
2016-08-24T10:02:48.722Z,3448
2016-08-24T10:03:48.730Z,3452
2016-08-24T10:04:48.720Z,3444
2016-08-24T10:05:48.702Z,3448
2016-08-24T10:06:48.719Z,3464
2016-08-24T10:07:48.698Z,3472
2016-08-24T10:08:48.738Z,3472
2016-08-24T10:09:48.728Z,3468
2016-08-24T10:10:48.715Z,3460
2016-08-24T10:11:48.772Z,3452
2016-08-24T10:12:48.745Z,3456
2016-08-24T10:13:48.816Z,3484
2016-08-24T10:14:49.769Z,3488
2016-08-24T10:15:48.746Z,3480
2016-08-24T10:16:48.760Z,3488
2016-08-24T10:17:48.770Z,3488
2016-08-24T10:18:48.802Z,3452
2016-08-24T10:19:48.723Z,3416
2016-08-24T10:20:48.727Z,3384
2016-08-24T10:21:48.752Z,3384
2016-08-24T10:22:48.742Z,3396
2016-08-24T10:23:48.868Z,3408
2016-08-24T10:24:48.772Z,3420
2016-08-24T10:25:48.843Z,3424
2016-08-24T10:26:48.953Z,3404
2016-08-24T10:27:48.819Z,3392
2016-08-24T10:28:49.281Z,3376
2016-08-24T10:29:49.339Z,3368
2016-08-24T10:30:48.935Z,3368
2016-08-24T10:31:48.757Z,3364
2016-08-24T10:32:48.729Z,3348
2016-08-24T10:33:48.747Z,3340
2016-08-24T10:34:48.731Z,3332
2016-08-24T10:35:48.763Z,3336
2016-08-24T10:36:48.945Z,3332
2016-08-24T10:37:48.837Z,3336
2016-08-24T10:38:49.774Z,3332
2016-08-24T10:39:48.761Z,3336
2016-08-24T10:40:48.785Z,3340
2016-08-24T10:41:48.728Z,3348
2016-08-24T10:42:48.790Z,3348
2016-08-24T10:43:48.787Z,3340
2016-08-24T10:44:51.370Z,3340
2016-08-24T10:45:48.770Z,3348
2016-08-24T10:46:49.522Z,3352
2016-08-24T10:47:48.810Z,3352
2016-08-24T10:48:48.908Z,3356
2016-08-24T10:49:49.493Z,3360
2016-08-24T10:50:49.271Z,3356
2016-08-24T10:51:48.739Z,3360
2016-08-24T10:52:48.816Z,3356
2016-08-24T10:53:49.207Z,3348
2016-08-24T10:54:49.042Z,3340
2016-08-24T10:55:48.796Z,3332
2016-08-24T10:56:48.758Z,3336
2016-08-24T10:57:49.729Z,3328
2016-08-24T10:58:49.965Z,3324
2016-08-24T10:59:48.910Z,3316
2016-08-24T11:00:48.784Z,3312
2016-08-24T11:01:48.834Z,3312
2016-08-24T11:02:49.103Z,3316
2016-08-24T11:03:49.569Z,3316
2016-08-24T11:04:48.756Z,3312
2016-08-24T11:05:49.925Z,3324
2016-08-24T11:06:48.774Z,3320
2016-08-24T11:07:48.874Z,3316
2016-08-24T11:08:48.773Z,3328
2016-08-24T11:09:50.472Z,3328
2016-08-24T11:10:49.672Z,3328
2016-08-24T11:11:48.998Z,3336
2016-08-24T11:12:48.868Z,3332
2016-08-24T11:13:48.804Z,3344
2016-08-24T11:14:49.396Z,3364
2016-08-24T11:15:49.604Z,3372
2016-08-24T11:16:53.648Z,3376
2016-08-24T11:17:48.789Z,3372
2016-08-24T11:18:49.028Z,3372
2016-08-24T11:19:48.812Z,3360
2016-08-24T11:20:48.853Z,3360
2016-08-24T11:21:48.825Z,3360
2016-08-24T11:22:50.105Z,3368
2016-08-24T11:23:49.264Z,3384
2016-08-24T11:24:48.773Z,3380
2016-08-24T11:25:51.855Z,3360
2016-08-24T11:26:53.350Z,3356
2016-08-24T11:27:49.730Z,3360
2016-08-24T11:28:58.004Z,3352
2016-08-24T11:29:53.606Z,3352
2016-08-24T11:30:49.465Z,3352
2016-08-24T11:32:02.703Z,3348
2016-08-24T11:32:49.810Z,3348
2016-08-24T11:33:49.775Z,3352
2016-08-24T11:34:48.821Z,3356
2016-08-24T11:35:49.043Z,3360
2016-08-24T11:36:49.057Z,3368
2016-08-24T11:37:48.886Z,3368
2016-08-24T11:38:49.364Z,3368
2016-08-24T11:39:49.374Z,3380
2016-08-24T11:40:51.047Z,3384
2016-08-24T11:41:49.397Z,3388
2016-08-24T11:42:50.416Z,3392
2016-08-24T11:43:50.815Z,3408
2016-08-24T11:44:49.389Z,3420
2016-08-24T11:45:53.682Z,3424
2016-08-24T11:46:48.907Z,3416
2016-08-24T11:47:50.692Z,3408
2016-08-24T11:48:50.024Z,3404
2016-08-24T11:49:50.140Z,3400
2016-08-24T11:50:49.950Z,3400
2016-08-24T11:51:48.909Z,3396
2016-08-24T11:52:52.037Z,3400
2016-08-24T11:53:51.496Z,3412
2016-08-24T11:54:49.377Z,3420
2016-08-24T11:55:54.640Z,3416
2016-08-24T11:56:52.460Z,3416
2016-08-24T11:57:55.721Z,3412
2016-08-24T11:58:53.131Z,3408
2016-08-24T11:59:52.317Z,3400
2016-08-24T12:00:49.257Z,3380
2016-08-24T12:01:49.700Z,3352
2016-08-24T12:02:48.830Z,3332
2016-08-24T12:03:49.959Z,3312
2016-08-24T12:04:50.202Z,3308
2016-08-24T12:05:49.684Z,3312
2016-08-24T12:06:49.143Z,3332
2016-08-24T12:07:49.541Z,3340
2016-08-24T12:08:48.930Z,3344
2016-08-24T12:09:50.547Z,3356
2016-08-24T12:10:51.118Z,3352
2016-08-24T12:11:51.923Z,3348
2016-08-24T12:12:49.438Z,3348
2016-08-24T12:13:48.992Z,3344
2016-08-24T12:14:49.187Z,3348
2016-08-24T12:15:49.502Z,3360
2016-08-24T12:16:48.871Z,3372
2016-08-24T12:17:48.905Z,3380
2016-08-24T12:18:48.880Z,3384
2016-08-24T12:19:48.867Z,3384
2016-08-24T12:20:48.895Z,3388
2016-08-24T12:21:48.900Z,3392
2016-08-24T12:22:48.943Z,3384
2016-08-24T12:23:48.872Z,3368
2016-08-24T12:24:48.920Z,3348
2016-08-24T12:25:48.871Z,3340
2016-08-24T12:26:48.882Z,3332
2016-08-24T12:27:48.903Z,3332
2016-08-24T12:28:48.892Z,3336
2016-08-24T12:29:48.916Z,3336
2016-08-24T12:30:49.497Z,3344
2016-08-24T12:31:48.936Z,3352
2016-08-24T12:32:48.887Z,3364
2016-08-24T12:33:49.019Z,3372
2016-08-24T12:34:48.913Z,3384
2016-08-24T12:35:49.498Z,3392
2016-08-24T12:36:48.920Z,3388
2016-08-24T12:37:48.883Z,3396
2016-08-24T12:38:48.904Z,3400
2016-08-24T12:39:48.869Z,3404
2016-08-24T12:40:48.920Z,3400
2016-08-24T12:41:48.859Z,3392
2016-08-24T12:42:49.155Z,3384
2016-08-24T12:43:48.884Z,3392
2016-08-24T12:44:48.965Z,3396
2016-08-24T12:45:48.927Z,3400
2016-08-24T12:46:48.931Z,3400
2016-08-24T12:47:48.929Z,3392
2016-08-24T12:48:48.966Z,3392
2016-08-24T12:49:48.982Z,3396
2016-08-24T12:50:48.906Z,3404
2016-08-24T12:51:48.949Z,3408
2016-08-24T12:52:48.949Z,3408
2016-08-24T12:53:48.915Z,3412
2016-08-24T12:54:49.027Z,3412
2016-08-24T12:55:48.957Z,3408
2016-08-24T12:56:48.937Z,3404
2016-08-24T12:57:48.995Z,3400
2016-08-24T12:58:48.950Z,3400
2016-08-24T12:59:48.914Z,3392
2016-08-24T13:00:48.943Z,3388
2016-08-24T13:01:48.948Z,3376
2016-08-24T13:02:48.891Z,3364
2016-08-24T13:03:48.927Z,3352
2016-08-24T13:04:48.946Z,3348
2016-08-24T13:05:48.959Z,3344
2016-08-24T13:06:48.929Z,3352
2016-08-24T13:07:48.901Z,3344
2016-08-24T13:08:48.912Z,3344
2016-08-24T13:09:48.914Z,3332
2016-08-24T13:10:48.923Z,3336
2016-08-24T13:11:48.897Z,3328
2016-08-24T13:12:48.968Z,3320
2016-08-24T13:13:48.943Z,3308
2016-08-24T13:14:49.180Z,3296
2016-08-24T13:15:48.967Z,3288
2016-08-24T13:16:48.899Z,3280
2016-08-24T13:17:48.966Z,3268
2016-08-24T13:18:48.991Z,3264
2016-08-24T13:19:49.038Z,3264
2016-08-24T13:20:48.975Z,3272
2016-08-24T13:21:48.998Z,3276
2016-08-24T13:22:48.966Z,3280
2016-08-24T13:23:49.007Z,3280
2016-08-24T13:24:48.998Z,3280
2016-08-24T13:25:48.949Z,3272
2016-08-24T13:26:48.976Z,3268
2016-08-24T13:27:49.361Z,3268
2016-08-24T13:28:50.092Z,3264
2016-08-24T13:29:49.894Z,3252
2016-08-24T13:30:49.996Z,3248
2016-08-24T13:31:48.916Z,3244
2016-08-24T13:32:48.966Z,3228
2016-08-24T13:33:48.973Z,3216
2016-08-24T13:34:49.564Z,3208
2016-08-24T13:35:48.934Z,3212
2016-08-24T13:36:48.951Z,3216
2016-08-24T13:37:48.948Z,3212
2016-08-24T13:38:48.951Z,3212
2016-08-24T13:39:49.231Z,3216
2016-08-24T13:40:48.954Z,3220
2016-08-24T13:41:48.955Z,3228
2016-08-24T13:42:49.327Z,3236
2016-08-24T13:43:48.998Z,3244
2016-08-24T13:44:48.978Z,3244
2016-08-24T13:45:49.205Z,3244
2016-08-24T13:46:48.959Z,3252
2016-08-24T13:47:49.066Z,3260
2016-08-24T13:48:49.052Z,3264
2016-08-24T13:49:49.066Z,3264
2016-08-24T13:50:48.976Z,3268
2016-08-24T13:51:49.090Z,3264
2016-08-24T13:52:49.004Z,3264